createdAt,value
2023-05-07T00:02:42.518Z,16.25
2023-05-07T00:05:28.048Z,15.73
2023-05-07T00:08:13.514Z,19.23
2023-05-07T00:10:58.447Z,17.30
2023-05-07T00:13:43.955Z,15.35
2023-05-07T00:16:29.230Z,15.35
2023-05-07T00:19:14.642Z,17.40
2023-05-07T00:21:59.890Z,12.77
2023-05-07T00:24:45.208Z,12.07
2023-05-07T00:27:30.465Z,13.88
2023-05-07T00:30:15.828Z,14.25
2023-05-07T00:33:00.969Z,13.63
2023-05-07T00:35:46.245Z,15.00
2023-05-07T00:38:31.438Z,13.75
2023-05-07T00:41:16.878Z,16.75
2023-05-07T00:44:03.578Z,10.63
2023-05-07T00:46:50.960Z,12.70
2023-05-07T00:49:42.107Z,11.73
2023-05-07T00:52:28.777Z,11.93
2023-05-07T00:55:15.569Z,12.65
2023-05-07T00:58:01.130Z,19.50
2023-05-07T01:00:46.232Z,22.25
2023-05-07T01:03:31.601Z,16.13
2023-05-07T01:06:18.778Z,18.25
2023-05-07T01:09:05.701Z,12.82
2023-05-07T01:11:52.827Z,12.73
2023-05-07T01:14:38.352Z,20.15
2023-05-07T01:17:24.125Z,13.07
2023-05-07T01:20:11.488Z,12.88
2023-05-07T01:22:58.552Z,11.05
2023-05-07T01:25:43.759Z,14.52
2023-05-07T01:28:29.095Z,13.20
2023-05-07T01:31:15.379Z,21.08
2023-05-07T01:34:04.221Z,13.70
2023-05-07T01:36:49.910Z,15.10
2023-05-07T01:39:37.643Z,12.07
2023-05-07T01:42:23.036Z,11.57
2023-05-07T01:45:08.877Z,11.15
2023-05-07T01:47:56.343Z,9.85
2023-05-07T01:50:42.464Z,13.82
2023-05-07T01:53:29.155Z,11.32
2023-05-07T01:56:14.338Z,12.48
2023-05-07T01:58:59.606Z,14.43
2023-05-07T02:01:44.975Z,19.23
2023-05-07T02:04:30.291Z,12.00
2023-05-07T02:07:15.762Z,13.93
2023-05-07T02:10:00.895Z,14.70
2023-05-07T02:12:46.134Z,15.95
2023-05-07T02:15:31.227Z,14.60
2023-05-07T02:18:17.642Z,10.60
2023-05-07T02:21:03.007Z,13.98
2023-05-07T02:23:48.103Z,14.30
2023-05-07T02:26:33.498Z,15.05
2023-05-07T02:29:18.810Z,15.65
2023-05-07T02:32:04.181Z,13.00
2023-05-07T02:34:51.995Z,13.05
2023-05-07T02:37:37.183Z,14.05
2023-05-07T02:40:22.680Z,15.48
2023-05-07T02:43:08.179Z,15.63
2023-05-07T02:46:07.547Z,11.85
2023-05-07T02:48:53.011Z,12.77
2023-05-07T02:51:38.272Z,13.02
2023-05-07T02:54:23.513Z,13.35
2023-05-07T02:57:08.774Z,15.70
2023-05-07T02:59:54.013Z,15.27
2023-05-07T03:02:39.342Z,18.13
2023-05-07T03:05:24.660Z,20.58
2023-05-07T03:08:10.687Z,19.63
2023-05-07T03:10:56.006Z,23.48
2023-05-07T03:13:41.396Z,19.00
2023-05-07T03:16:26.948Z,16.10
2023-05-07T03:19:12.198Z,16.52
2023-05-07T03:21:57.500Z,20.45
2023-05-07T03:24:43.451Z,21.55
2023-05-07T03:27:28.841Z,19.42
2023-05-07T03:30:14.194Z,17.33
2023-05-07T03:32:59.483Z,13.80
2023-05-07T03:35:44.790Z,15.25
2023-05-07T03:38:30.006Z,20.38
2023-05-07T03:41:15.477Z,16.45
2023-05-07T03:44:00.735Z,15.25
2023-05-07T03:46:46.235Z,23.70
2023-05-07T03:49:31.490Z,23.55
2023-05-07T03:52:16.971Z,17.13
2023-05-07T03:55:02.310Z,17.85
2023-05-07T03:57:47.800Z,17.88
2023-05-07T04:00:35.104Z,20.88
2023-05-07T04:03:20.358Z,20.50
2023-05-07T04:06:05.529Z,19.80
2023-05-07T04:08:51.014Z,21.50
2023-05-07T04:11:37.033Z,37.38
2023-05-07T04:14:22.306Z,33.40
2023-05-07T04:17:08.221Z,26.90
2023-05-07T04:19:53.150Z,27.05
2023-05-07T04:22:38.571Z,23.15
2023-05-07T04:25:27.793Z,19.63
2023-05-07T04:30:58.812Z,21.60
2023-05-07T04:33:43.856Z,22.50
2023-05-07T04:36:30.183Z,21.60
2023-05-07T04:39:15.983Z,21.30
2023-05-07T04:42:01.629Z,19.83
2023-05-07T04:44:46.751Z,15.43
2023-05-07T04:47:32.078Z,20.58
2023-05-07T04:50:18.742Z,17.52
2023-05-07T04:53:04.111Z,21.00
2023-05-07T04:55:49.335Z,22.08
2023-05-07T04:58:34.686Z,21.92
2023-05-07T05:01:20.024Z,18.73
2023-05-07T05:04:05.475Z,23.13
2023-05-07T05:06:50.752Z,19.13
2023-05-07T05:09:35.913Z,23.08
2023-05-07T05:12:21.367Z,21.95
2023-05-07T05:15:07.303Z,20.30
2023-05-07T05:17:52.837Z,20.13
2023-05-07T05:20:38.009Z,18.17
2023-05-07T05:23:23.303Z,17.35
2023-05-07T05:26:08.589Z,14.02
2023-05-07T05:28:53.745Z,14.57
2023-05-07T05:31:39.075Z,16.60
2023-05-07T05:34:24.325Z,13.75
2023-05-07T05:37:09.653Z,16.02
2023-05-07T05:39:55.826Z,15.70
2023-05-07T05:42:41.200Z,15.32
2023-05-07T05:45:26.874Z,13.77
2023-05-07T05:48:12.938Z,17.45
2023-05-07T05:50:58.208Z,14.82
2023-05-07T05:53:43.515Z,17.40
2023-05-07T05:56:28.926Z,13.40
2023-05-07T05:59:14.043Z,13.82
2023-05-07T06:01:59.447Z,13.27
2023-05-07T06:04:44.635Z,13.32
2023-05-07T06:07:29.742Z,13.88
2023-05-07T06:10:15.112Z,14.45
2023-05-07T06:13:00.468Z,14.80
2023-05-07T06:15:45.767Z,17.70
2023-05-07T06:18:31.201Z,15.30
2023-05-07T06:21:17.035Z,14.25
2023-05-07T06:24:03.322Z,18.10
2023-05-07T06:26:48.866Z,13.18
2023-05-07T06:29:34.770Z,14.77
2023-05-07T06:32:20.164Z,17.75
2023-05-07T06:35:05.799Z,17.35
2023-05-07T06:37:51.177Z,19.00
2023-05-07T06:40:36.254Z,19.20
2023-05-07T06:43:21.106Z,16.38
2023-05-07T06:46:06.426Z,17.05
2023-05-07T06:48:51.971Z,19.63
2023-05-07T06:51:37.267Z,16.58
2023-05-07T06:54:24.312Z,15.73
2023-05-07T06:57:10.001Z,15.27
2023-05-07T06:59:55.107Z,14.73
2023-05-07T07:02:40.651Z,16.38
2023-05-07T07:05:26.280Z,14.13
2023-05-07T07:08:11.725Z,14.85
2023-05-07T07:10:57.029Z,14.75
2023-05-07T07:13:43.788Z,16.58
2023-05-07T07:16:29.113Z,15.52
2023-05-07T07:19:16.237Z,15.63
2023-05-07T07:22:01.919Z,16.65
2023-05-07T07:24:47.156Z,12.25
2023-05-07T07:27:32.562Z,17.10
2023-05-07T07:30:17.809Z,13.82
2023-05-07T07:33:04.322Z,15.18
2023-05-07T07:35:49.416Z,16.35
2023-05-07T07:38:35.150Z,12.48
2023-05-07T07:41:20.649Z,16.48
2023-05-07T07:44:08.565Z,19.27
2023-05-07T07:46:53.849Z,14.00
2023-05-07T07:49:39.411Z,10.98
2023-05-07T07:52:24.644Z,13.27
2023-05-07T07:55:10.333Z,16.30
2023-05-07T07:57:55.470Z,11.27
2023-05-07T08:00:40.958Z,10.88
2023-05-07T08:03:26.312Z,11.90
2023-05-07T08:06:11.662Z,10.25
2023-05-07T08:08:56.969Z,11.63
2023-05-07T08:11:42.429Z,11.68
2023-05-07T08:14:29.308Z,9.38
2023-05-07T08:17:16.972Z,12.10
2023-05-07T08:20:02.344Z,10.00
2023-05-07T08:22:47.638Z,9.80
2023-05-07T08:25:35.086Z,9.55
2023-05-07T08:28:21.337Z,10.88
2023-05-07T08:31:06.748Z,9.05
2023-05-07T08:33:52.015Z,10.48
2023-05-07T08:36:37.293Z,8.50
2023-05-07T08:39:22.680Z,9.73
2023-05-07T08:42:10.037Z,9.68
2023-05-07T08:45:00.313Z,7.53
2023-05-07T08:47:48.103Z,10.95
2023-05-07T08:50:37.259Z,14.55
2023-05-07T08:53:22.760Z,9.88
2023-05-07T08:56:09.820Z,9.35
2023-05-07T08:58:57.706Z,8.02
2023-05-07T09:01:43.376Z,7.40
2023-05-07T09:04:28.936Z,6.30
2023-05-07T09:07:14.440Z,6.30
2023-05-07T09:10:02.214Z,6.13
2023-05-07T09:12:48.144Z,4.85
2023-05-07T09:15:33.435Z,6.20
2023-05-07T09:18:18.704Z,5.05
2023-05-07T09:21:04.096Z,6.40
2023-05-07T09:23:51.754Z,9.45
2023-05-07T09:26:36.865Z,5.40
2023-05-07T09:29:22.282Z,4.55
2023-05-07T09:32:08.909Z,4.95
2023-05-07T09:34:54.360Z,4.15
2023-05-07T09:37:39.808Z,4.70
2023-05-07T09:40:27.377Z,3.28
2023-05-07T09:43:14.759Z,3.40
2023-05-07T09:46:03.417Z,2.47
2023-05-07T09:48:49.849Z,2.17
2023-05-07T09:51:46.789Z,2.03
2023-05-07T09:54:33.948Z,1.80
2023-05-07T09:57:21.626Z,1.80
2023-05-07T10:00:10.357Z,3.75
2023-05-07T10:02:58.888Z,1.77
2023-05-07T10:05:45.617Z,4.10
2023-05-07T10:08:31.900Z,1.45
2023-05-07T10:11:17.614Z,2.05
2023-05-07T10:14:09.801Z,1.35
2023-05-07T10:16:55.532Z,1.70
2023-05-07T10:19:42.135Z,1.58
2023-05-07T10:22:28.588Z,1.23
2023-05-07T10:25:26.809Z,1.83
2023-05-07T10:28:13.334Z,1.50
2023-05-07T10:31:10.239Z,1.40
2023-05-07T10:33:57.806Z,1.50
2023-05-07T10:36:43.484Z,1.88
2023-05-07T10:39:28.844Z,1.58
2023-05-07T10:42:15.995Z,3.03
2023-05-07T10:45:14.260Z,1.45
2023-05-07T10:48:27.196Z,1.45
2023-05-07T10:51:22.952Z,2.05
2023-05-07T10:54:14.506Z,2.17
2023-05-07T10:57:38.009Z,2.58
2023-05-07T11:00:38.986Z,1.73
2023-05-07T11:03:25.987Z,2.10
2023-05-07T11:06:12.728Z,5.78
2023-05-07T11:08:59.062Z,1.88
2023-05-07T11:11:56.856Z,1.90
2023-05-07T11:14:42.351Z,1.73
2023-05-07T11:17:28.210Z,5.38
2023-05-07T11:20:13.627Z,2.85
2023-05-07T11:22:59.058Z,2.13
2023-05-07T11:25:44.806Z,2.50
2023-05-07T11:28:31.327Z,3.33
2023-05-07T11:31:22.558Z,4.55
2023-05-07T11:34:08.995Z,3.22
2023-05-07T11:36:54.673Z,2.92
2023-05-07T11:39:39.677Z,3.00
2023-05-07T11:42:31.695Z,2.85
2023-05-07T11:45:26.359Z,3.30
2023-05-07T11:48:11.511Z,3.90
2023-05-07T11:50:59.761Z,3.38
2023-05-07T11:53:46.503Z,3.10
2023-05-07T11:56:36.359Z,3.03
2023-05-07T11:59:21.658Z,4.30
2023-05-07T12:02:08.488Z,5.68
2023-05-07T12:04:55.218Z,2.72
2023-05-07T12:07:40.775Z,3.92
2023-05-07T12:10:26.458Z,4.82
2023-05-07T12:13:21.034Z,17.13
2023-05-07T12:16:07.692Z,6.07
2023-05-07T12:18:56.035Z,6.80
2023-05-07T12:21:41.975Z,3.67
2023-05-07T12:24:27.213Z,3.13
2023-05-07T12:27:12.745Z,5.40
2023-05-07T12:30:00.272Z,4.53
2023-05-07T12:32:46.678Z,5.40
2023-05-07T12:35:36.859Z,4.22
2023-05-07T12:38:22.538Z,4.20
2023-05-07T12:41:09.985Z,5.43
2023-05-07T12:43:58.734Z,4.18
2023-05-07T12:46:44.287Z,4.13
2023-05-07T12:49:29.506Z,3.63
2023-05-07T12:52:14.957Z,3.83
2023-05-07T12:55:07.695Z,6.32
2023-05-07T12:57:54.531Z,4.72
2023-05-07T13:00:39.962Z,2.58
2023-05-07T13:03:37.460Z,4.20
2023-05-07T13:06:22.910Z,16.77
2023-05-07T13:09:08.103Z,3.65
2023-05-07T13:11:53.547Z,5.40
2023-05-07T13:14:38.834Z,3.47
2023-05-07T13:17:24.229Z,3.20
2023-05-07T13:20:13.914Z,4.25
2023-05-07T13:23:02.097Z,4.03
2023-05-07T13:25:47.533Z,4.88
2023-05-07T13:28:32.710Z,5.07
2023-05-07T13:31:18.876Z,5.20
2023-05-07T13:34:04.113Z,4.40
2023-05-07T13:36:49.574Z,5.28
2023-05-07T13:39:34.996Z,4.57
2023-05-07T13:42:20.522Z,4.93
2023-05-07T13:45:06.129Z,9.18
2023-05-07T13:47:51.662Z,24.00
2023-05-07T13:50:36.935Z,14.57
2023-05-07T13:53:22.186Z,12.95
2023-05-07T13:56:07.468Z,9.88
2023-05-07T13:59:00.165Z,10.48
2023-05-07T14:01:46.078Z,9.48
2023-05-07T14:04:32.352Z,10.35
2023-05-07T14:07:17.692Z,10.65
2023-05-07T14:10:03.608Z,9.57
2023-05-07T14:12:48.976Z,9.25
2023-05-07T14:15:34.529Z,11.50
2023-05-07T14:18:19.752Z,10.35
2023-05-07T14:21:07.360Z,14.15
2023-05-07T14:23:52.934Z,12.00
2023-05-07T14:26:38.255Z,12.02
2023-05-07T14:29:24.476Z,9.23
2023-05-07T14:32:10.130Z,10.30
2023-05-07T14:34:55.101Z,11.07
2023-05-07T14:37:40.353Z,13.40
2023-05-07T14:40:25.642Z,15.00
2023-05-07T14:43:11.256Z,14.32
2023-05-07T14:45:56.312Z,11.75
2023-05-07T14:48:41.619Z,12.40
2023-05-07T14:51:29.158Z,10.30
2023-05-07T14:54:15.166Z,10.45
2023-05-07T14:57:00.905Z,13.40
2023-05-07T14:59:46.325Z,10.35
2023-05-07T15:02:31.688Z,10.20
2023-05-07T15:05:18.512Z,12.70
2023-05-07T15:08:03.972Z,10.48
2023-05-07T15:10:50.630Z,10.00
2023-05-07T15:13:35.783Z,16.95
2023-05-07T15:16:21.399Z,12.20
2023-05-07T15:19:06.997Z,14.75
2023-05-07T15:21:52.828Z,11.73
2023-05-07T15:24:40.104Z,13.45
2023-05-07T15:27:25.734Z,10.57
2023-05-07T15:30:11.876Z,10.88
2023-05-07T15:32:57.322Z,20.30
2023-05-07T15:35:42.688Z,11.35
2023-05-07T15:38:29.232Z,11.70
2023-05-07T15:41:14.660Z,12.77
2023-05-07T15:43:59.934Z,21.73
2023-05-07T15:46:45.326Z,17.58
2023-05-07T15:49:30.631Z,14.90
2023-05-07T15:52:16.848Z,16.70
2023-05-07T15:55:03.787Z,12.65
2023-05-07T15:57:49.454Z,12.50
2023-05-07T16:00:36.630Z,14.30
2023-05-07T16:03:23.004Z,15.23
2023-05-07T16:06:08.617Z,16.33
2023-05-07T16:08:55.351Z,21.83
2023-05-07T16:11:40.839Z,17.20
2023-05-07T16:14:25.975Z,18.52
2023-05-07T16:17:11.202Z,12.35
2023-05-07T16:19:59.087Z,13.70
2023-05-07T16:22:44.515Z,10.88
2023-05-07T16:25:30.485Z,13.10
2023-05-07T16:28:16.041Z,13.30
2023-05-07T16:31:19.637Z,13.52
2023-05-07T16:34:05.674Z,17.05
2023-05-07T16:36:51.050Z,14.50
2023-05-07T16:39:36.441Z,13.80
2023-05-07T16:42:21.834Z,24.83
2023-05-07T16:45:07.508Z,12.52
2023-05-07T16:47:54.011Z,15.70
2023-05-07T16:50:39.225Z,15.50
2023-05-07T16:53:24.551Z,20.20
2023-05-07T16:56:09.788Z,25.90
2023-05-07T16:58:55.667Z,13.63
2023-05-07T17:01:42.850Z,12.38
2023-05-07T17:04:29.950Z,11.38
2023-05-07T17:07:16.359Z,13.38
2023-05-07T17:10:02.445Z,12.15
2023-05-07T17:12:47.867Z,11.93
2023-05-07T17:15:32.988Z,26.00
2023-05-07T17:18:18.309Z,16.98
2023-05-07T17:21:03.532Z,18.33
2023-05-07T17:23:49.026Z,13.75
2023-05-07T17:26:36.481Z,15.20
2023-05-07T17:29:21.988Z,9.68
2023-05-07T17:32:08.556Z,13.63
2023-05-07T17:34:54.034Z,11.38
2023-05-07T17:37:39.451Z,9.68
2023-05-07T17:40:26.599Z,9.77
2023-05-07T17:43:11.985Z,12.30
2023-05-07T17:45:57.486Z,10.95
2023-05-07T17:48:42.636Z,9.07
2023-05-07T17:51:36.166Z,10.07
2023-05-07T17:54:26.272Z,13.23
2023-05-07T17:57:11.764Z,10.45
2023-05-07T17:59:58.034Z,9.75
2023-05-07T18:02:43.256Z,9.38
2023-05-07T18:05:29.492Z,9.73
2023-05-07T18:08:16.280Z,11.82
2023-05-07T18:11:03.116Z,9.05
2023-05-07T18:13:48.744Z,7.07
2023-05-07T18:16:34.887Z,11.15
2023-05-07T18:19:22.325Z,8.07
2023-05-07T18:22:07.457Z,9.13
2023-05-07T18:24:55.107Z,11.80
2023-05-07T18:27:40.561Z,11.73
2023-05-07T18:30:26.365Z,8.35
2023-05-07T18:33:11.625Z,6.68
2023-05-07T18:35:57.652Z,15.45
2023-05-07T18:38:43.065Z,10.65
2023-05-07T18:41:28.607Z,7.18
2023-05-07T18:44:14.007Z,8.55
2023-05-07T18:47:00.823Z,6.43
2023-05-07T18:49:47.410Z,7.03
2023-05-07T18:52:32.707Z,8.73
2023-05-07T18:55:20.070Z,13.20
2023-05-07T18:58:06.561Z,7.07
2023-05-07T19:00:51.799Z,14.95
2023-05-07T19:03:37.410Z,14.68
2023-05-07T19:06:22.767Z,11.40
2023-05-07T19:09:08.169Z,15.18
2023-05-07T19:11:53.959Z,7.32
2023-05-07T19:14:43.011Z,9.18
2023-05-07T19:17:28.280Z,9.82
2023-05-07T19:20:13.781Z,9.38
2023-05-07T19:22:59.044Z,7.32
2023-05-07T19:25:44.630Z,7.75
2023-05-07T19:28:30.509Z,13.02
2023-05-07T19:31:23.624Z,12.80
2023-05-07T19:34:09.205Z,9.32
2023-05-07T19:36:56.295Z,7.43
2023-05-07T19:39:41.678Z,9.35
2023-05-07T19:42:27.287Z,7.53
2023-05-07T19:45:15.459Z,8.68
2023-05-07T19:48:01.682Z,7.43
2023-05-07T19:50:49.814Z,4.13
2023-05-07T19:53:35.325Z,9.90
2023-05-07T19:56:22.321Z,5.18
2023-05-07T19:59:09.470Z,6.20
2023-05-07T20:01:55.073Z,9.38
2023-05-07T20:04:40.500Z,5.38
2023-05-07T20:07:27.142Z,6.35
2023-05-07T20:10:12.900Z,6.88
2023-05-07T20:12:58.450Z,6.57
2023-05-07T20:15:46.924Z,5.53
2023-05-07T20:18:32.628Z,5.60
2023-05-07T20:21:17.696Z,8.18
2023-05-07T20:24:03.227Z,14.30
2023-05-07T20:26:48.542Z,8.13
2023-05-07T20:29:34.228Z,8.18
2023-05-07T20:32:20.470Z,15.18
2023-05-07T20:35:07.179Z,9.43
2023-05-07T20:37:52.621Z,7.40
2023-05-07T20:40:38.016Z,7.35
2023-05-07T20:43:23.705Z,4.32
2023-05-07T20:46:09.334Z,3.65
2023-05-07T20:48:55.124Z,3.45
2023-05-07T20:51:40.405Z,3.80
2023-05-07T20:54:28.098Z,2.60
2023-05-07T20:57:14.469Z,7.28
2023-05-07T20:59:59.880Z,6.15
2023-05-07T21:02:45.639Z,5.55
2023-05-07T21:05:32.532Z,10.02
2023-05-07T21:08:18.183Z,8.05
2023-05-07T21:11:03.240Z,4.05
2023-05-07T21:13:48.648Z,3.97
2023-05-07T21:16:34.012Z,2.55
2023-05-07T21:19:19.336Z,3.90
2023-05-07T21:22:05.319Z,3.15
2023-05-07T21:24:50.531Z,3.70
2023-05-07T21:27:35.827Z,8.60
2023-05-07T21:30:21.201Z,3.55
2023-05-07T21:33:08.377Z,3.95
2023-05-07T21:35:54.180Z,6.70
2023-05-07T21:38:40.389Z,6.28
2023-05-07T21:41:26.185Z,3.75
2023-05-07T21:44:11.660Z,3.65
2023-05-07T21:46:57.051Z,5.03
2023-05-07T21:49:42.521Z,3.08
2023-05-07T21:52:27.811Z,3.72
2023-05-07T21:55:13.289Z,5.00
2023-05-07T21:58:05.574Z,6.50
2023-05-07T22:00:51.499Z,3.17
2023-05-07T22:03:36.826Z,3.53
2023-05-07T22:06:22.590Z,3.80
2023-05-07T22:09:07.973Z,4.03
2023-05-07T22:11:52.998Z,3.03
2023-05-07T22:14:38.252Z,3.63
2023-05-07T22:17:24.558Z,3.67
2023-05-07T22:20:10.775Z,3.75
2023-05-07T22:22:56.900Z,2.60
2023-05-07T22:25:42.196Z,3.30
2023-05-07T22:28:27.418Z,3.90
2023-05-07T22:31:12.616Z,2.72
2023-05-07T22:33:58.015Z,3.22
2023-05-07T22:36:43.276Z,2.85
2023-05-07T22:39:31.220Z,3.17
2023-05-07T22:42:16.648Z,2.53
2023-05-07T22:45:01.929Z,4.15
2023-05-07T22:47:47.280Z,3.25
2023-05-07T22:50:37.783Z,4.43
2023-05-07T22:53:23.700Z,3.22
2023-05-07T22:56:09.975Z,5.40
2023-05-07T22:58:55.125Z,4.13
2023-05-07T23:01:40.714Z,3.28
2023-05-07T23:04:26.810Z,5.82
2023-05-07T23:07:12.112Z,3.78
2023-05-07T23:09:57.555Z,3.10
2023-05-07T23:12:43.901Z,3.13
2023-05-07T23:15:29.160Z,3.28
2023-05-07T23:18:14.514Z,2.90
2023-05-07T23:20:59.897Z,2.85
2023-05-07T23:23:45.157Z,2.65
2023-05-07T23:26:30.429Z,5.13
2023-05-07T23:29:15.691Z,4.47
2023-05-07T23:32:01.273Z,4.35
2023-05-07T23:34:50.288Z,4.38
2023-05-07T23:37:35.771Z,3.28
2023-05-07T23:40:20.858Z,4.28
2023-05-07T23:43:06.003Z,5.25
2023-05-07T23:45:51.751Z,4.90
2023-05-07T23:48:37.202Z,6.53
2023-05-07T23:51:22.540Z,5.30
2023-05-07T23:54:07.911Z,7.40
2023-05-07T23:56:53.190Z,5.25
2023-05-07T23:59:38.490Z,4.68
